sensor_id;sensor_type;location;lat;lon;timestamp;pressure;altitude;pressure_sealevel;temperature;humidity
70971;BME280;58632;51.718;19.446;2023-07-13T00:02:05;99158.96;;;20.03;100.00
70971;BME280;58632;51.718;19.446;2023-07-13T00:04:31;99160.95;;;20.02;100.00
70971;BME280;58632;51.718;19.446;2023-07-13T00:06:58;99159.27;;;20.02;100.00
70971;BME280;58632;51.718;19.446;2023-07-13T00:09:24;99160.23;;;20.01;100.00
70971;BME280;58632;51.718;19.446;2023-07-13T00:11:55;99160.64;;;20.01;100.00
70971;BME280;58632;51.718;19.446;2023-07-13T00:14:23;99160.31;;;20.02;100.00
70971;BME280;58632;51.718;19.446;2023-07-13T00:16:49;99160.70;;;20.03;100.00
70971;BME280;58632;51.718;19.446;2023-07-13T00:19:15;99156.42;;;20.03;100.00
70971;BME280;58632;51.718;19.446;2023-07-13T00:21:41;99153.64;;;20.04;100.00
70971;BME280;58632;51.718;19.446;2023-07-13T00:24:08;99152.14;;;20.02;100.00
70971;BME280;58632;51.718;19.446;2023-07-13T00:26:40;99151.73;;;20.02;100.00
70971;BME280;58632;51.718;19.446;2023-07-13T00:29:06;99153.80;;;20.02;100.00
70971;BME280;58632;51.718;19.446;2023-07-13T00:31:36;99153.17;;;19.99;100.00
70971;BME280;58632;51.718;19.446;2023-07-13T00:34:02;99151.61;;;19.91;100.00
70971;BME280;58632;51.718;19.446;2023-07-13T00:36:30;99152.02;;;19.87;100.00
70971;BME280;58632;51.718;19.446;2023-07-13T00:38:55;99155.52;;;19.84;100.00
70971;BME280;58632;51.718;19.446;2023-07-13T00:41:21;99157.35;;;19.81;100.00
70971;BME280;58632;51.718;19.446;2023-07-13T00:43:49;99157.27;;;19.76;100.00
70971;BME280;58632;51.718;19.446;2023-07-13T00:46:19;99153.79;;;19.75;100.00
70971;BME280;58632;51.718;19.446;2023-07-13T00:48:52;99156.73;;;19.77;100.00
70971;BME280;58632;51.718;19.446;2023-07-13T00:51:24;99156.57;;;19.76;100.00
70971;BME280;58632;51.718;19.446;2023-07-13T00:53:52;99156.73;;;19.78;100.00
70971;BME280;58632;51.718;19.446;2023-07-13T00:56:19;99158.77;;;19.80;100.00
70971;BME280;58632;51.718;19.446;2023-07-13T00:58:45;99158.13;;;19.80;100.00
70971;BME280;58632;51.718;19.446;2023-07-13T01:01:13;99157.42;;;19.79;100.00
70971;BME280;58632;51.718;19.446;2023-07-13T01:03:39;99162.74;;;19.81;100.00
70971;BME280;58632;51.718;19.446;2023-07-13T01:06:07;99166.08;;;19.82;100.00
70971;BME280;58632;51.718;19.446;2023-07-13T01:08:33;99163.14;;;19.82;100.00
70971;BME280;58632;51.718;19.446;2023-07-13T01:10:59;99156.95;;;19.80;100.00
70971;BME280;58632;51.718;19.446;2023-07-13T01:13:25;99151.31;;;19.69;100.00
70971;BME280;58632;51.718;19.446;2023-07-13T01:15:55;99146.23;;;19.59;100.00
70971;BME280;58632;51.718;19.446;2023-07-13T01:18:25;99141.56;;;19.56;100.00
70971;BME280;58632;51.718;19.446;2023-07-13T01:20:58;99142.90;;;19.57;100.00
70971;BME280;58632;51.718;19.446;2023-07-13T01:23:25;99142.20;;;19.53;100.00
70971;BME280;58632;51.718;19.446;2023-07-13T01:25:52;99138.47;;;19.50;100.00
70971;BME280;58632;51.718;19.446;2023-07-13T01:28:23;99139.82;;;19.47;100.00
70971;BME280;58632;51.718;19.446;2023-07-13T01:30:56;99142.13;;;19.43;100.00
70971;BME280;58632;51.718;19.446;2023-07-13T01:33:23;99141.40;;;19.40;100.00
70971;BME280;58632;51.718;19.446;2023-07-13T01:35:51;99143.86;;;19.34;100.00
70971;BME280;58632;51.718;19.446;2023-07-13T01:38:18;99147.20;;;19.34;100.00
70971;BME280;58632;51.718;19.446;2023-07-13T01:40:45;99150.76;;;19.33;100.00
70971;BME280;58632;51.718;19.446;2023-07-13T01:43:11;99158.08;;;19.34;100.00
70971;BME280;58632;51.718;19.446;2023-07-13T01:45:37;99160.20;;;19.33;100.00
70971;BME280;58632;51.718;19.446;2023-07-13T01:48:03;99168.52;;;19.31;100.00
70971;BME280;58632;51.718;19.446;2023-07-13T01:50:28;99167.58;;;19.30;100.00
70971;BME280;58632;51.718;19.446;2023-07-13T01:52:56;99170.27;;;19.33;100.00
70971;BME280;58632;51.718;19.446;2023-07-13T01:55:22;99165.84;;;19.36;100.00
70971;BME280;58632;51.718;19.446;2023-07-13T01:57:48;99160.92;;;19.41;100.00
70971;BME280;58632;51.718;19.446;2023-07-13T02:00:16;99162.27;;;19.45;100.00
70971;BME280;58632;51.718;19.446;2023-07-13T02:02:42;99160.36;;;19.47;100.00
70971;BME280;58632;51.718;19.446;2023-07-13T02:05:09;99153.14;;;19.48;100.00
70971;BME280;58632;51.718;19.446;2023-07-13T02:07:36;99152.98;;;19.46;100.00
70971;BME280;58632;51.718;19.446;2023-07-13T02:10:02;99147.67;;;19.45;100.00
70971;BME280;58632;51.718;19.446;2023-07-13T02:12:27;99146.01;;;19.42;100.00
70971;BME280;58632;51.718;19.446;2023-07-13T02:14:53;99144.27;;;19.41;100.00
70971;BME280;58632;51.718;19.446;2023-07-13T02:17:19;99145.61;;;19.37;100.00
70971;BME280;58632;51.718;19.446;2023-07-13T02:19:45;99148.63;;;19.29;100.00
70971;BME280;58632;51.718;19.446;2023-07-13T02:22:11;99150.05;;;19.22;100.00
70971;BME280;58632;51.718;19.446;2023-07-13T02:24:36;99148.46;;;19.19;100.00
70971;BME280;58632;51.718;19.446;2023-07-13T02:27:04;99148.70;;;19.19;100.00
70971;BME280;58632;51.718;19.446;2023-07-13T02:29:29;99143.23;;;19.23;100.00
70971;BME280;58632;51.718;19.446;2023-07-13T02:31:56;99146.32;;;19.26;100.00
70971;BME280;58632;51.718;19.446;2023-07-13T02:34:23;99141.32;;;19.26;100.00
70971;BME280;58632;51.718;19.446;2023-07-13T02:36:49;99138.48;;;19.27;100.00
70971;BME280;58632;51.718;19.446;2023-07-13T02:39:14;99138.23;;;19.25;100.00
70971;BME280;58632;51.718;19.446;2023-07-13T02:41:40;99139.35;;;19.28;100.00
70971;BME280;58632;51.718;19.446;2023-07-13T02:44:06;99141.73;;;19.28;100.00
70971;BME280;58632;51.718;19.446;2023-07-13T02:46:34;99141.88;;;19.27;100.00
70971;BME280;58632;51.718;19.446;2023-07-13T02:49:01;99140.86;;;19.25;100.00
70971;BME280;58632;51.718;19.446;2023-07-13T02:51:27;99141.09;;;19.23;100.00
70971;BME280;58632;51.718;19.446;2023-07-13T02:53:52;99143.54;;;19.21;100.00
70971;BME280;58632;51.718;19.446;2023-07-13T02:56:23;99139.52;;;19.23;100.00
70971;BME280;58632;51.718;19.446;2023-07-13T02:58:52;99137.99;;;19.23;100.00
70971;BME280;58632;51.718;19.446;2023-07-13T03:01:17;99138.31;;;19.24;100.00
70971;BME280;58632;51.718;19.446;2023-07-13T03:03:45;99136.48;;;19.23;100.00
70971;BME280;58632;51.718;19.446;2023-07-13T03:06:12;99139.80;;;19.26;100.00
70971;BME280;58632;51.718;19.446;2023-07-13T03:08:41;99141.73;;;19.26;100.00
70971;BME280;58632;51.718;19.446;2023-07-13T03:11:09;99140.61;;;19.21;100.00
70971;BME280;58632;51.718;19.446;2023-07-13T03:13:38;99148.70;;;19.24;100.00
70971;BME280;58632;51.718;19.446;2023-07-13T03:16:04;99146.39;;;19.24;100.00
70971;BME280;58632;51.718;19.446;2023-07-13T03:18:31;99143.23;;;19.31;100.00
70971;BME280;58632;51.718;19.446;2023-07-13T03:20:57;99139.18;;;19.46;100.00
70971;BME280;58632;51.718;19.446;2023-07-13T03:23:24;99141.00;;;19.66;100.00
70971;BME280;58632;51.718;19.446;2023-07-13T03:25:50;99141.86;;;19.83;100.00
70971;BME280;58632;51.718;19.446;2023-07-13T03:28:17;99137.77;;;19.96;100.00
70971;BME280;58632;51.718;19.446;2023-07-13T03:30:44;99137.28;;;20.04;100.00
70971;BME280;58632;51.718;19.446;2023-07-13T03:33:10;99136.86;;;20.17;100.00
70971;BME280;58632;51.718;19.446;2023-07-13T03:35:40;99135.93;;;20.28;100.00
70971;BME280;58632;51.718;19.446;2023-07-13T03:38:05;99139.09;;;20.34;100.00
70971;BME280;58632;51.718;19.446;2023-07-13T03:40:31;99145.49;;;20.39;100.00
70971;BME280;58632;51.718;19.446;2023-07-13T03:42:57;99149.31;;;20.41;100.00
70971;BME280;58632;51.718;19.446;2023-07-13T03:45:22;99153.55;;;20.33;100.00
70971;BME280;58632;51.718;19.446;2023-07-13T03:47:48;99161.41;;;20.30;100.00
70971;BME280;58632;51.718;19.446;2023-07-13T03:50:14;99163.30;;;20.35;100.00
70971;BME280;58632;51.718;19.446;2023-07-13T03:52:40;99167.94;;;20.30;100.00
70971;BME280;58632;51.718;19.446;2023-07-13T03:55:07;99177.55;;;20.27;100.00
70971;BME280;58632;51.718;19.446;2023-07-13T03:57:36;99177.64;;;20.24;100.00
70971;BME280;58632;51.718;19.446;2023-07-13T04:00:03;99182.70;;;20.32;100.00
70971;BME280;58632;51.718;19.446;2023-07-13T04:02:30;99182.20;;;20.39;100.00
70971;BME280;58632;51.718;19.446;2023-07-13T04:04:55;99183.29;;;20.46;100.00
70971;BME280;58632;51.718;19.446;2023-07-13T04:07:21;99185.40;;;20.54;100.00
70971;BME280;58632;51.718;19.446;2023-07-13T04:09:47;99181.16;;;20.66;100.00
70971;BME280;58632;51.718;19.446;2023-07-13T04:12:13;99181.98;;;20.75;100.00
70971;BME280;58632;51.718;19.446;2023-07-13T04:14:39;99186.05;;;20.74;100.00
70971;BME280;58632;51.718;19.446;2023-07-13T04:17:05;99184.74;;;20.65;100.00
70971;BME280;58632;51.718;19.446;2023-07-13T04:19:30;99181.10;;;20.60;100.00
70971;BME280;58632;51.718;19.446;2023-07-13T04:21:56;99178.53;;;20.64;100.00
70971;BME280;58632;51.718;19.446;2023-07-13T04:24:22;99186.44;;;20.76;100.00
70971;BME280;58632;51.718;19.446;2023-07-13T04:26:48;99193.74;;;20.91;100.00
70971;BME280;58632;51.718;19.446;2023-07-13T04:29:14;99191.63;;;21.01;100.00
70971;BME280;58632;51.718;19.446;2023-07-13T04:31:40;99189.28;;;21.06;100.00
70971;BME280;58632;51.718;19.446;2023-07-13T04:34:08;99187.55;;;21.05;100.00
70971;BME280;58632;51.718;19.446;2023-07-13T04:36:35;99182.67;;;21.19;100.00
70971;BME280;58632;51.718;19.446;2023-07-13T04:39:03;99185.13;;;21.32;100.00
70971;BME280;58632;51.718;19.446;2023-07-13T04:41:31;99189.27;;;21.45;100.00
70971;BME280;58632;51.718;19.446;2023-07-13T04:43:57;99193.41;;;21.64;100.00
70971;BME280;58632;51.718;19.446;2023-07-13T04:46:24;99197.44;;;21.78;100.00
70971;BME280;58632;51.718;19.446;2023-07-13T04:48:53;99202.41;;;21.90;100.00
70971;BME280;58632;51.718;19.446;2023-07-13T04:51:19;99203.85;;;21.98;100.00
70971;BME280;58632;51.718;19.446;2023-07-13T04:53:45;99203.56;;;22.03;100.00
70971;BME280;58632;51.718;19.446;2023-07-13T04:56:11;99203.51;;;22.16;100.00
70971;BME280;58632;51.718;19.446;2023-07-13T04:58:42;99196.16;;;22.28;100.00
70971;BME280;58632;51.718;19.446;2023-07-13T05:01:08;99195.83;;;22.43;100.00
70971;BME280;58632;51.718;19.446;2023-07-13T05:03:35;99202.64;;;22.65;100.00
70971;BME280;58632;51.718;19.446;2023-07-13T05:06:04;99203.36;;;22.90;100.00
70971;BME280;58632;51.718;19.446;2023-07-13T05:08:33;99204.02;;;23.24;100.00
70971;BME280;58632;51.718;19.446;2023-07-13T05:11:00;99201.48;;;23.74;100.00
70971;BME280;58632;51.718;19.446;2023-07-13T05:13:25;99211.03;;;24.30;100.00
70971;BME280;58632;51.718;19.446;2023-07-13T05:16:04;99211.19;;;24.79;100.00
70971;BME280;58632;51.718;19.446;2023-07-13T05:18:32;99223.74;;;25.08;100.00
70971;BME280;58632;51.718;19.446;2023-07-13T05:21:03;99225.63;;;25.78;100.00
70971;BME280;58632;51.718;19.446;2023-07-13T05:23:30;99222.55;;;26.62;100.00
70971;BME280;58632;51.718;19.446;2023-07-13T05:25:56;99218.28;;;27.45;100.00
70971;BME280;58632;51.718;19.446;2023-07-13T05:28:25;99216.80;;;27.71;100.00
70971;BME280;58632;51.718;19.446;2023-07-13T05:30:51;99222.89;;;27.54;100.00
70971;BME280;58632;51.718;19.446;2023-07-13T05:33:17;99225.14;;;27.32;100.00
70971;BME280;58632;51.718;19.446;2023-07-13T05:35:43;99225.36;;;27.30;100.00
70971;BME280;58632;51.718;19.446;2023-07-13T05:38:08;99223.80;;;27.26;100.00
70971;BME280;58632;51.718;19.446;2023-07-13T05:40:36;99224.64;;;27.03;100.00
70971;BME280;58632;51.718;19.446;2023-07-13T05:43:03;99222.31;;;26.90;100.00
70971;BME280;58632;51.718;19.446;2023-07-13T05:45:28;99226.66;;;26.81;100.00
70971;BME280;58632;51.718;19.446;2023-07-13T05:47:54;99226.69;;;27.12;100.00
70971;BME280;58632;51.718;19.446;2023-07-13T05:50:19;99224.98;;;27.72;100.00
70971;BME280;58632;51.718;19.446;2023-07-13T05:52:46;99220.90;;;28.64;100.00
70971;BME280;58632;51.718;19.446;2023-07-13T05:55:12;99221.00;;;29.45;100.00
70971;BME280;58632;51.718;19.446;2023-07-13T05:57:38;99214.64;;;29.73;100.00
70971;BME280;58632;51.718;19.446;2023-07-13T06:00:04;99212.99;;;29.65;99.98
70971;BME280;58632;51.718;19.446;2023-07-13T06:02:30;99216.52;;;29.54;97.59
70971;BME280;58632;51.718;19.446;2023-07-13T06:04:55;99214.75;;;29.58;97.51
70971;BME280;58632;51.718;19.446;2023-07-13T06:07:21;99216.13;;;29.90;94.01
70971;BME280;58632;51.718;19.446;2023-07-13T06:09:47;99213.28;;;30.06;93.20
70971;BME280;58632;51.718;19.446;2023-07-13T06:12:13;99214.04;;;30.00;92.43
70971;BME280;58632;51.718;19.446;2023-07-13T06:14:39;99217.86;;;29.83;87.22
70971;BME280;58632;51.718;19.446;2023-07-13T06:17:05;99214.58;;;29.49;88.54
70971;BME280;58632;51.718;19.446;2023-07-13T06:19:31;99211.59;;;29.17;89.35
70971;BME280;58632;51.718;19.446;2023-07-13T06:21:59;99216.14;;;28.84;91.20
70971;BME280;58632;51.718;19.446;2023-07-13T06:24:24;99214.08;;;28.85;93.38
70971;BME280;58632;51.718;19.446;2023-07-13T06:26:50;99215.16;;;28.97;90.67
70971;BME280;58632;51.718;19.446;2023-07-13T06:29:17;99219.90;;;29.23;90.49
70971;BME280;58632;51.718;19.446;2023-07-13T06:31:43;99215.41;;;29.48;89.54
70971;BME280;58632;51.718;19.446;2023-07-13T06:34:08;99213.48;;;29.34;87.35
70971;BME280;58632;51.718;19.446;2023-07-13T06:36:34;99202.24;;;28.87;91.12
70971;BME280;58632;51.718;19.446;2023-07-13T06:39:02;99200.00;;;28.44;90.43
70971;BME280;58632;51.718;19.446;2023-07-13T06:41:27;99192.54;;;28.32;90.60
70971;BME280;58632;51.718;19.446;2023-07-13T06:43:54;99191.09;;;28.45;90.79
70971;BME280;58632;51.718;19.446;2023-07-13T06:46:22;99186.06;;;28.68;90.62
70971;BME280;58632;51.718;19.446;2023-07-13T06:48:48;99190.35;;;28.81;90.87
70971;BME280;58632;51.718;19.446;2023-07-13T06:51:17;99196.56;;;29.04;89.80
70971;BME280;58632;51.718;19.446;2023-07-13T06:53:43;99200.46;;;29.55;89.19
70971;BME280;58632;51.718;19.446;2023-07-13T06:56:10;99206.87;;;30.14;86.26
70971;BME280;58632;51.718;19.446;2023-07-13T06:58:36;99210.93;;;30.38;82.98
70971;BME280;58632;51.718;19.446;2023-07-13T07:01:03;99209.48;;;30.27;78.16
70971;BME280;58632;51.718;19.446;2023-07-13T07:03:29;99212.11;;;30.33;81.33
70971;BME280;58632;51.718;19.446;2023-07-13T07:05:59;99218.09;;;30.38;76.14
70971;BME280;58632;51.718;19.446;2023-07-13T07:08:25;99214.83;;;30.33;74.34
70971;BME280;58632;51.718;19.446;2023-07-13T07:10:53;99211.05;;;30.35;74.01
70971;BME280;58632;51.718;19.446;2023-07-13T07:13:20;99211.80;;;30.42;73.67
70971;BME280;58632;51.718;19.446;2023-07-13T07:15:46;99212.55;;;30.64;72.82
70971;BME280;58632;51.718;19.446;2023-07-13T07:18:14;99217.61;;;30.79;71.78
70971;BME280;58632;51.718;19.446;2023-07-13T07:20:40;99220.51;;;30.87;70.43
70971;BME280;58632;51.718;19.446;2023-07-13T07:23:06;99219.32;;;30.76;69.19
70971;BME280;58632;51.718;19.446;2023-07-13T07:25:35;99216.63;;;30.45;69.35
70971;BME280;58632;51.718;19.446;2023-07-13T07:28:03;99215.17;;;30.16;69.95
70971;BME280;58632;51.718;19.446;2023-07-13T07:30:32;99217.07;;;30.00;72.14
70971;BME280;58632;51.718;19.446;2023-07-13T07:32:58;99218.85;;;29.89;73.47
70971;BME280;58632;51.718;19.446;2023-07-13T07:35:26;99223.95;;;29.74;73.03
70971;BME280;58632;51.718;19.446;2023-07-13T07:37:54;99230.08;;;29.56;75.82
70971;BME280;58632;51.718;19.446;2023-07-13T07:40:19;99238.65;;;29.37;76.59
70971;BME280;58632;51.718;19.446;2023-07-13T07:42:46;99250.31;;;29.15;77.71
70971;BME280;58632;51.718;19.446;2023-07-13T07:45:14;99257.63;;;28.83;80.53
70971;BME280;58632;51.718;19.446;2023-07-13T07:47:45;99272.41;;;28.50;82.91
70971;BME280;58632;51.718;19.446;2023-07-13T07:50:10;99281.55;;;28.23;84.87
70971;BME280;58632;51.718;19.446;2023-07-13T07:52:36;99292.14;;;27.92;86.27
70971;BME280;58632;51.718;19.446;2023-07-13T07:55:04;99300.69;;;27.64;87.43
70971;BME280;58632;51.718;19.446;2023-07-13T07:57:30;99301.60;;;27.37;89.12
70971;BME280;58632;51.718;19.446;2023-07-13T07:59:56;99305.79;;;27.15;91.47
70971;BME280;58632;51.718;19.446;2023-07-13T08:02:21;99306.27;;;26.95;92.91
70971;BME280;58632;51.718;19.446;2023-07-13T08:04:47;99311.61;;;26.77;95.24
70971;BME280;58632;51.718;19.446;2023-07-13T08:07:13;99315.52;;;26.65;97.27
70971;BME280;58632;51.718;19.446;2023-07-13T08:09:41;99326.33;;;26.54;99.44
70971;BME280;58632;51.718;19.446;2023-07-13T08:12:08;99333.63;;;26.29;100.00
70971;BME280;58632;51.718;19.446;2023-07-13T08:14:34;99347.98;;;25.99;100.00
70971;BME280;58632;51.718;19.446;2023-07-13T08:16:59;99353.03;;;25.60;100.00
70971;BME280;58632;51.718;19.446;2023-07-13T08:19:25;99352.36;;;25.16;100.00
70971;BME280;58632;51.718;19.446;2023-07-13T08:21:50;99352.73;;;24.80;100.00
70971;BME280;58632;51.718;19.446;2023-07-13T08:24:16;99356.33;;;24.45;100.00
70971;BME280;58632;51.718;19.446;2023-07-13T08:26:45;99362.23;;;24.16;100.00
70971;BME280;58632;51.718;19.446;2023-07-13T08:29:12;99365.07;;;23.94;100.00
70971;BME280;58632;51.718;19.446;2023-07-13T08:31:40;99369.97;;;23.69;100.00
70971;BME280;58632;51.718;19.446;2023-07-13T08:34:05;99371.85;;;23.42;100.00
70971;BME280;58632;51.718;19.446;2023-07-13T08:36:31;99373.27;;;23.18;100.00
70971;BME280;58632;51.718;19.446;2023-07-13T08:38:57;99373.32;;;22.98;100.00
70971;BME280;58632;51.718;19.446;2023-07-13T08:41:23;99371.60;;;22.87;100.00
70971;BME280;58632;51.718;19.446;2023-07-13T08:43:52;99367.08;;;22.78;100.00
70971;BME280;58632;51.718;19.446;2023-07-13T08:46:33;99365.73;;;22.76;100.00
70971;BME280;58632;51.718;19.446;2023-07-13T08:49:19;99359.75;;;22.61;100.00
70971;BME280;58632;51.718;19.446;2023-07-13T08:52:32;99350.02;;;22.35;100.00
70971;BME280;58632;51.718;19.446;2023-07-13T08:55:02;99348.11;;;22.14;100.00
70971;BME280;58632;51.718;19.446;2023-07-13T08:58:12;99353.54;;;22.02;100.00
70971;BME280;58632;51.718;19.446;2023-07-13T09:01:32;99359.14;;;21.89;100.00
70971;BME280;58632;51.718;19.446;2023-07-13T09:04:15;99367.30;;;21.71;100.00
70971;BME280;58632;51.718;19.446;2023-07-13T09:12:17;99387.11;;;21.73;100.00
70971;BME280;58632;51.718;19.446;2023-07-13T09:14:47;99386.86;;;21.86;100.00
70971;BME280;58632;51.718;19.446;2023-07-13T09:17:30;99389.21;;;21.92;100.00
70971;BME280;58632;51.718;19.446;2023-07-13T09:20:09;99388.95;;;21.96;100.00
70971;BME280;58632;51.718;19.446;2023-07-13T09:22:37;99392.54;;;21.94;100.00
70971;BME280;58632;51.718;19.446;2023-07-13T09:25:30;99396.57;;;22.00;100.00
70971;BME280;58632;51.718;19.446;2023-07-13T09:28:01;99399.15;;;22.15;100.00
70971;BME280;58632;51.718;19.446;2023-07-13T09:33:07;99389.70;;;22.37;100.00
70971;BME280;58632;51.718;19.446;2023-07-13T09:35:34;99389.63;;;22.35;100.00
70971;BME280;58632;51.718;19.446;2023-07-13T09:38:17;99384.52;;;22.39;100.00
70971;BME280;58632;51.718;19.446;2023-07-13T09:40:56;99381.02;;;22.45;100.00
70971;BME280;58632;51.718;19.446;2023-07-13T09:43:25;99372.39;;;22.56;100.00
70971;BME280;58632;51.718;19.446;2023-07-13T09:45:51;99366.20;;;22.63;100.00
70971;BME280;58632;51.718;19.446;2023-07-13T09:48:18;99363.95;;;22.65;100.00
70971;BME280;58632;51.718;19.446;2023-07-13T09:50:45;99363.73;;;22.63;100.00
70971;BME280;58632;51.718;19.446;2023-07-13T09:53:18;99363.27;;;22.52;100.00
70971;BME280;58632;51.718;19.446;2023-07-13T09:55:46;99358.83;;;22.40;100.00
70971;BME280;58632;51.718;19.446;2023-07-13T09:58:26;99359.51;;;22.27;100.00
70971;BME280;58632;51.718;19.446;2023-07-13T10:01:14;99363.33;;;22.15;100.00
70971;BME280;58632;51.718;19.446;2023-07-13T10:03:53;99364.21;;;22.12;100.00
70971;BME280;58632;51.718;19.446;2023-07-13T10:06:20;99361.86;;;22.09;100.00
70971;BME280;58632;51.718;19.446;2023-07-13T10:08:52;99364.67;;;22.16;100.00
70971;BME280;58632;51.718;19.446;2023-07-13T10:11:23;99372.73;;;22.13;100.00
70971;BME280;58632;51.718;19.446;2023-07-13T10:14:02;99373.91;;;22.14;100.00
70971;BME280;58632;51.718;19.446;2023-07-13T10:16:32;99375.55;;;22.23;100.00
70971;BME280;58632;51.718;19.446;2023-07-13T10:19:08;99380.78;;;22.35;100.00
70971;BME280;58632;51.718;19.446;2023-07-13T10:21:53;99379.91;;;22.52;100.00
70971;BME280;58632;51.718;19.446;2023-07-13T10:24:22;99378.83;;;22.67;100.00
70971;BME280;58632;51.718;19.446;2023-07-13T10:26:56;99375.55;;;22.82;100.00
70971;BME280;58632;51.718;19.446;2023-07-13T10:29:26;99367.65;;;22.99;100.00
70971;BME280;58632;51.718;19.446;2023-07-13T10:31:53;99370.15;;;23.11;100.00
70971;BME280;58632;51.718;19.446;2023-07-13T10:34:21;99373.11;;;23.24;100.00
70971;BME280;58632;51.718;19.446;2023-07-13T10:36:51;99374.89;;;23.29;100.00
70971;BME280;58632;51.718;19.446;2023-07-13T10:39:21;99372.83;;;23.27;100.00
70971;BME280;58632;51.718;19.446;2023-07-13T10:41:53;99372.46;;;23.24;100.00
70971;BME280;58632;51.718;19.446;2023-07-13T10:44:23;99376.09;;;23.28;100.00
70971;BME280;58632;51.718;19.446;2023-07-13T10:47:01;99375.48;;;23.25;100.00
70971;BME280;58632;51.718;19.446;2023-07-13T10:49:29;99380.14;;;23.17;100.00
70971;BME280;58632;51.718;19.446;2023-07-13T10:51:56;99383.02;;;23.09;100.00
70971;BME280;58632;51.718;19.446;2023-07-13T10:54:34;99382.86;;;23.01;100.00
70971;BME280;58632;51.718;19.446;2023-07-13T10:59:39;99377.14;;;23.00;100.00
70971;BME280;58632;51.718;19.446;2023-07-13T11:02:10;99378.48;;;23.00;100.00
70971;BME280;58632;51.718;19.446;2023-07-13T11:04:42;99373.48;;;22.90;100.00
70971;BME280;58632;51.718;19.446;2023-07-13T11:07:20;99373.33;;;22.81;100.00
70971;BME280;58632;51.718;19.446;2023-07-13T11:09:51;99366.17;;;22.72;100.00
70971;BME280;58632;51.718;19.446;2023-07-13T11:15:13;99374.34;;;22.91;100.00
70971;BME280;58632;51.718;19.446;2023-07-13T11:17:48;99380.77;;;23.05;100.00
70971;BME280;58632;51.718;19.446;2023-07-13T11:22:47;99371.33;;;23.19;100.00
70971;BME280;58632;51.718;19.446;2023-07-13T11:25:33;99363.25;;;23.33;100.00
70971;BME280;58632;51.718;19.446;2023-07-13T11:33:28;99351.33;;;23.30;100.00
70971;BME280;58632;51.718;19.446;2023-07-13T11:38:28;99354.02;;;23.44;100.00
70971;BME280;58632;51.718;19.446;2023-07-13T11:40:59;99355.60;;;23.56;100.00
70971;BME280;58632;51.718;19.446;2023-07-13T11:43:29;99362.30;;;23.68;100.00
70971;BME280;58632;51.718;19.446;2023-07-13T11:46:15;99364.36;;;23.63;100.00
70971;BME280;58632;51.718;19.446;2023-07-13T11:48:42;99373.06;;;23.58;100.00
70971;BME280;58632;51.718;19.446;2023-07-13T11:51:18;99367.59;;;23.56;100.00
70971;BME280;58632;51.718;19.446;2023-07-13T11:53:46;99365.56;;;23.63;100.00
70971;BME280;58632;51.718;19.446;2023-07-13T11:56:13;99360.56;;;23.67;100.00
70971;BME280;58632;51.718;19.446;2023-07-13T11:58:39;99357.38;;;23.73;100.00
70971;BME280;58632;51.718;19.446;2023-07-13T12:01:05;99364.00;;;23.73;100.00
70971;BME280;58632;51.718;19.446;2023-07-13T12:03:33;99367.70;;;23.70;100.00
70971;BME280;58632;51.718;19.446;2023-07-13T12:06:03;99362.64;;;23.60;100.00
70971;BME280;58632;51.718;19.446;2023-07-13T12:08:31;99360.15;;;23.61;100.00
70971;BME280;58632;51.718;19.446;2023-07-13T12:11:15;99365.16;;;23.70;100.00
70971;BME280;58632;51.718;19.446;2023-07-13T12:13:41;99372.94;;;23.67;100.00
70971;BME280;58632;51.718;19.446;2023-07-13T12:18:53;99378.62;;;23.66;100.00
70971;BME280;58632;51.718;19.446;2023-07-13T12:21:29;99383.13;;;23.76;100.00
70971;BME280;58632;51.718;19.446;2023-07-13T12:23:56;99381.98;;;23.79;100.00
70971;BME280;58632;51.718;19.446;2023-07-13T12:26:22;99385.38;;;23.77;100.00
70971;BME280;58632;51.718;19.446;2023-07-13T12:28:52;99384.33;;;23.76;100.00
70971;BME280;58632;51.718;19.446;2023-07-13T12:31:39;99384.19;;;23.75;100.00
70971;BME280;58632;51.718;19.446;2023-07-13T12:34:11;99382.42;;;23.68;100.00
70971;BME280;58632;51.718;19.446;2023-07-13T12:37:01;99382.10;;;23.69;100.00
70971;BME280;58632;51.718;19.446;2023-07-13T12:39:44;99384.20;;;23.61;100.00
70971;BME280;58632;51.718;19.446;2023-07-13T12:42:21;99389.20;;;23.51;100.00
70971;BME280;58632;51.718;19.446;2023-07-13T12:44:57;99395.39;;;23.42;100.00
70971;BME280;58632;51.718;19.446;2023-07-13T12:47:24;99396.70;;;23.45;100.00
70971;BME280;58632;51.718;19.446;2023-07-13T12:49:54;99389.35;;;23.47;100.00
70971;BME280;58632;51.718;19.446;2023-07-13T12:52:23;99383.34;;;23.60;100.00
70971;BME280;58632;51.718;19.446;2023-07-13T12:54:58;99380.50;;;23.81;100.00
70971;BME280;58632;51.718;19.446;2023-07-13T12:57:25;99377.02;;;23.96;100.00
70971;BME280;58632;51.718;19.446;2023-07-13T12:59:53;99372.55;;;24.06;100.00
70971;BME280;58632;51.718;19.446;2023-07-13T13:02:33;99375.30;;;24.08;100.00
70971;BME280;58632;51.718;19.446;2023-07-13T13:05:01;99375.67;;;24.16;100.00
70971;BME280;58632;51.718;19.446;2023-07-13T13:07:29;99379.96;;;24.23;100.00
70971;BME280;58632;51.718;19.446;2023-07-13T13:09:57;99378.02;;;24.24;100.00
70971;BME280;58632;51.718;19.446;2023-07-13T13:12:26;99377.39;;;24.27;100.00
70971;BME280;58632;51.718;19.446;2023-07-13T13:14:53;99377.42;;;24.31;100.00
70971;BME280;58632;51.718;19.446;2023-07-13T13:17:21;99375.86;;;24.33;100.00
70971;BME280;58632;51.718;19.446;2023-07-13T13:19:51;99377.09;;;24.36;100.00